sensor_id;sensor_type;location;lat;lon;timestamp;pressure;altitude;pressure_sealevel;temperature;humidity
2000;BME280;1001;48.87406500;9.59633600;2022-09-09T00:01:01;94808.13;;;15.17;79.13
2000;BME280;1001;48.87406500;9.59633600;2022-09-09T00:03:35;94805.25;;;15.19;79.27
2000;BME280;1001;48.87406500;9.59633600;2022-09-09T00:06:09;94804.97;;;15.25;79.07
2000;BME280;1001;48.87406500;9.59633600;2022-09-09T00:08:45;94805.50;;;15.27;79.03
2000;BME280;1001;48.87406500;9.59633600;2022-09-09T00:11:23;94806.00;;;15.24;79.17
2000;BME280;1001;48.87406500;9.59633600;2022-09-09T00:13:53;94810.50;;;15.19;79.40
2000;BME280;1001;48.87406500;9.59633600;2022-09-09T00:16:24;94806.28;;;15.18;79.21
2000;BME280;1001;48.87406500;9.59633600;2022-09-09T00:18:57;94807.59;;;15.15;79.63
2000;BME280;1001;48.87406500;9.59633600;2022-09-09T00:21:33;94805.22;;;15.09;79.90
2000;BME280;1001;48.87406500;9.59633600;2022-09-09T00:24:01;94806.28;;;15.13;79.65
2000;BME280;1001;48.87406500;9.59633600;2022-09-09T00:26:38;94806.03;;;15.09;80.14
2000;BME280;1001;48.87406500;9.59633600;2022-09-09T00:29:14;94799.97;;;15.14;79.72
2000;BME280;1001;48.87406500;9.59633600;2022-09-09T00:31:47;94794.69;;;15.14;79.53
2000;BME280;1001;48.87406500;9.59633600;2022-09-09T00:34:18;94803.63;;;15.08;79.98
2000;BME280;1001;48.87406500;9.59633600;2022-09-09T00:36:48;94799.16;;;15.13;79.67
2000;BME280;1001;48.87406500;9.59633600;2022-09-09T00:39:22;94793.09;;;15.13;79.33
2000;BME280;1001;48.87406500;9.59633600;2022-09-09T00:42:10;94795.50;;;15.14;79.69
2000;BME280;1001;48.87406500;9.59633600;2022-09-09T00:44:51;94784.69;;;15.11;79.33
2000;BME280;1001;48.87406500;9.59633600;2022-09-09T00:50:30;94792.59;;;15.11;79.29
2000;BME280;1001;48.87406500;9.59633600;2022-09-09T00:53:09;94792.31;;;15.12;79.26
2000;BME280;1001;48.87406500;9.59633600;2022-09-09T00:55:45;94787.31;;;15.16;79.07
2000;BME280;1001;48.87406500;9.59633600;2022-09-09T00:58:16;94791.78;;;15.20;78.83
2000;BME280;1001;48.87406500;9.59633600;2022-09-09T01:00:44;94797.06;;;15.20;79.02
2000;BME280;1001;48.87406500;9.59633600;2022-09-09T01:03:29;94794.94;;;15.22;79.17
2000;BME280;1001;48.87406500;9.59633600;2022-09-09T01:06:02;94796.53;;;15.28;79.07
2000;BME280;1001;48.87406500;9.59633600;2022-09-09T01:08:57;94800.47;;;15.36;79.22
2000;BME280;1001;48.87406500;9.59633600;2022-09-09T01:11:33;94791.53;;;15.47;78.96
2000;BME280;1001;48.87406500;9.59633600;2022-09-09T01:14:13;94797.03;;;15.60;78.66
2000;BME280;1001;48.87406500;9.59633600;2022-09-09T01:16:44;94802.03;;;15.67;78.56
2000;BME280;1001;48.87406500;9.59633600;2022-09-09T01:19:18;94800.41;;;15.81;78.45
2000;BME280;1001;48.87406500;9.59633600;2022-09-09T01:21:50;94801.69;;;15.94;77.62
2000;BME280;1001;48.87406500;9.59633600;2022-09-09T01:24:27;94808.28;;;16.01;77.48
2000;BME280;1001;48.87406500;9.59633600;2022-09-09T01:27:00;94811.16;;;16.05;77.13
2000;BME280;1001;48.87406500;9.59633600;2022-09-09T01:29:28;94810.31;;;16.19;76.96
2000;BME280;1001;48.87406500;9.59633600;2022-09-09T01:31:56;94815.56;;;16.29;74.73
2000;BME280;1001;48.87406500;9.59633600;2022-09-09T01:34:25;94814.16;;;16.42;75.35
2000;BME280;1001;48.87406500;9.59633600;2022-09-09T01:36:57;94816.56;;;16.39;75.14
2000;BME280;1001;48.87406500;9.59633600;2022-09-09T01:39:24;94813.91;;;16.39;76.12
2000;BME280;1001;48.87406500;9.59633600;2022-09-09T01:41:53;94802.31;;;16.40;74.82
2000;BME280;1001;48.87406500;9.59633600;2022-09-09T01:44:24;94811.81;;;16.35;75.90
2000;BME280;1001;48.87406500;9.59633600;2022-09-09T01:46:51;94813.13;;;16.38;74.51
2000;BME280;1001;48.87406500;9.59633600;2022-09-09T01:49:18;94810.22;;;16.40;73.74
2000;BME280;1001;48.87406500;9.59633600;2022-09-09T01:51:49;94812.06;;;16.39;73.89
2000;BME280;1001;48.87406500;9.59633600;2022-09-09T01:54:16;94808.16;;;16.31;75.59
2000;BME280;1001;48.87406500;9.59633600;2022-09-09T01:56:48;94808.94;;;16.32;75.38
2000;BME280;1001;48.87406500;9.59633600;2022-09-09T01:59:33;94817.91;;;16.31;75.51
2000;BME280;1001;48.87406500;9.59633600;2022-09-09T02:02:10;94817.38;;;16.34;75.07
2000;BME280;1001;48.87406500;9.59633600;2022-09-09T02:04:40;94817.09;;;16.30;74.84
2000;BME280;1001;48.87406500;9.59633600;2022-09-09T02:07:19;94820.53;;;16.36;74.32
2000;BME280;1001;48.87406500;9.59633600;2022-09-09T02:09:52;94815.78;;;16.33;74.04
2000;BME280;1001;48.87406500;9.59633600;2022-09-09T02:12:24;94813.72;;;16.30;74.23
2000;BME280;1001;48.87406500;9.59633600;2022-09-09T02:14:56;94812.63;;;16.31;75.11
2000;BME280;1001;48.87406500;9.59633600;2022-09-09T02:17:27;94812.13;;;16.29;74.53
2000;BME280;1001;48.87406500;9.59633600;2022-09-09T02:20:01;94808.47;;;16.20;74.71
2000;BME280;1001;48.87406500;9.59633600;2022-09-09T02:22:30;94807.44;;;16.11;74.68
2000;BME280;1001;48.87406500;9.59633600;2022-09-09T02:25:00;94806.88;;;16.14;74.58
2000;BME280;1001;48.87406500;9.59633600;2022-09-09T02:27:27;94799.03;;;16.09;74.75
2000;BME280;1001;48.87406500;9.59633600;2022-09-09T02:29:56;94795.06;;;16.06;74.38
2000;BME280;1001;48.87406500;9.59633600;2022-09-09T02:32:24;94790.06;;;16.00;74.97
2000;BME280;1001;48.87406500;9.59633600;2022-09-09T02:34:55;94793.53;;;15.90;75.66
2000;BME280;1001;48.87406500;9.59633600;2022-09-09T02:37:26;94788.53;;;15.89;75.46
2000;BME280;1001;48.87406500;9.59633600;2022-09-09T02:39:55;94795.91;;;15.87;75.48
2000;BME280;1001;48.87406500;9.59633600;2022-09-09T02:42:22;94796.22;;;15.80;75.53
2000;BME280;1001;48.87406500;9.59633600;2022-09-09T02:44:49;94796.47;;;15.74;76.12
2000;BME280;1001;48.87406500;9.59633600;2022-09-09T02:47:33;94794.94;;;15.62;76.85
2000;BME280;1001;48.87406500;9.59633600;2022-09-09T02:50:11;94791.50;;;15.67;76.81
2000;BME280;1001;48.87406500;9.59633600;2022-09-09T02:52:45;94797.56;;;15.68;76.44
2000;BME280;1001;48.87406500;9.59633600;2022-09-09T02:55:18;94798.09;;;15.59;76.84
2000;BME280;1001;48.87406500;9.59633600;2022-09-09T02:57:47;94793.09;;;15.53;77.33
2000;BME280;1001;48.87406500;9.59633600;2022-09-09T03:00:14;94799.16;;;15.48;77.51
2000;BME280;1001;48.87406500;9.59633600;2022-09-09T03:02:42;94804.97;;;15.45;77.70
2000;BME280;1001;48.87406500;9.59633600;2022-09-09T03:05:10;94809.69;;;15.38;78.05
2000;BME280;1001;48.87406500;9.59633600;2022-09-09T03:07:38;94806.00;;;15.29;78.95
2000;BME280;1001;48.87406500;9.59633600;2022-09-09T03:10:06;94794.16;;;15.22;79.59
2000;BME280;1001;48.87406500;9.59633600;2022-09-09T03:12:33;94787.56;;;15.19;79.68
2000;BME280;1001;48.87406500;9.59633600;2022-09-09T03:15:00;94793.09;;;15.13;79.58
2000;BME280;1001;48.87406500;9.59633600;2022-09-09T03:17:26;94799.69;;;15.05;80.46
2000;BME280;1001;48.87406500;9.59633600;2022-09-09T03:19:54;94801.53;;;14.89;81.07
2000;BME280;1001;48.87406500;9.59633600;2022-09-09T03:22:23;94799.41;;;14.81;81.78
2000;BME280;1001;48.87406500;9.59633600;2022-09-09T03:24:50;94801.00;;;14.77;82.01
2000;BME280;1001;48.87406500;9.59633600;2022-09-09T03:27:17;94808.09;;;14.67;82.92
2000;BME280;1001;48.87406500;9.59633600;2022-09-09T03:29:44;94808.88;;;14.57;83.44
2000;BME280;1001;48.87406500;9.59633600;2022-09-09T03:32:12;94809.09;;;14.51;83.83
2000;BME280;1001;48.87406500;9.59633600;2022-09-09T03:34:40;94811.22;;;14.59;83.68
2000;BME280;1001;48.87406500;9.59633600;2022-09-09T03:37:08;94804.38;;;14.58;83.97
2000;BME280;1001;48.87406500;9.59633600;2022-09-09T03:39:35;94799.13;;;14.58;84.30
2000;BME280;1001;48.87406500;9.59633600;2022-09-09T03:42:02;94803.34;;;14.64;83.98
2000;BME280;1001;48.87406500;9.59633600;2022-09-09T03:44:29;94799.66;;;14.65;84.33
2000;BME280;1001;48.87406500;9.59633600;2022-09-09T03:46:56;94801.25;;;14.66;84.80
2000;BME280;1001;48.87406500;9.59633600;2022-09-09T03:49:25;94798.13;;;14.74;83.99
2000;BME280;1001;48.87406500;9.59633600;2022-09-09T03:51:54;94799.69;;;14.80;83.80
2000;BME280;1001;48.87406500;9.59633600;2022-09-09T03:54:23;94795.22;;;14.85;83.49
2000;BME280;1001;48.87406500;9.59633600;2022-09-09T03:56:49;94788.09;;;14.91;83.27
2000;BME280;1001;48.87406500;9.59633600;2022-09-09T03:59:16;94791.53;;;14.91;83.52
2000;BME280;1001;48.87406500;9.59633600;2022-09-09T04:01:42;94790.72;;;14.91;83.56
2000;BME280;1001;48.87406500;9.59633600;2022-09-09T04:04:10;94787.06;;;14.92;83.69
2000;BME280;1001;48.87406500;9.59633600;2022-09-09T04:06:37;94790.22;;;14.99;83.94
2000;BME280;1001;48.87406500;9.59633600;2022-09-09T04:09:04;94789.72;;;15.07;83.93
2000;BME280;1001;48.87406500;9.59633600;2022-09-09T04:11:32;94790.75;;;15.06;84.44
2000;BME280;1001;48.87406500;9.59633600;2022-09-09T04:13:59;94798.13;;;15.09;84.42
2000;BME280;1001;48.87406500;9.59633600;2022-09-09T04:16:26;94794.94;;;15.17;83.31
2000;BME280;1001;48.87406500;9.59633600;2022-09-09T04:18:52;94797.88;;;15.26;82.51
2000;BME280;1001;48.87406500;9.59633600;2022-09-09T04:21:19;94801.53;;;15.30;83.67
2000;BME280;1001;48.87406500;9.59633600;2022-09-09T04:23:46;94797.88;;;15.26;83.52
2000;BME280;1001;48.87406500;9.59633600;2022-09-09T04:26:13;94792.84;;;15.29;83.21
2000;BME280;1001;48.87406500;9.59633600;2022-09-09T04:28:41;94792.59;;;15.31;83.17
2000;BME280;1001;48.87406500;9.59633600;2022-09-09T04:31:09;94794.94;;;15.22;83.33
2000;BME280;1001;48.87406500;9.59633600;2022-09-09T04:33:36;94791.78;;;15.20;83.90
2000;BME280;1001;48.87406500;9.59633600;2022-09-09T04:36:05;94788.88;;;15.17;84.36
2000;BME280;1001;48.87406500;9.59633600;2022-09-09T04:38:31;94790.75;;;15.11;84.95
2000;BME280;1001;48.87406500;9.59633600;2022-09-09T04:40:58;94802.34;;;15.20;84.45
2000;BME280;1001;48.87406500;9.59633600;2022-09-09T04:43:25;94802.34;;;15.25;83.11
2000;BME280;1001;48.87406500;9.59633600;2022-09-09T04:45:57;94798.91;;;15.25;82.50
2000;BME280;1001;48.87406500;9.59633600;2022-09-09T04:48:24;94798.63;;;15.26;82.40
2000;BME280;1001;48.87406500;9.59633600;2022-09-09T04:50:56;94798.91;;;15.25;82.42
2000;BME280;1001;48.87406500;9.59633600;2022-09-09T04:53:23;94803.94;;;15.21;82.03
2000;BME280;1001;48.87406500;9.59633600;2022-09-09T04:55:50;94802.06;;;15.17;82.86
2000;BME280;1001;48.87406500;9.59633600;2022-09-09T04:58:17;94795.75;;;14.97;83.99
2000;BME280;1001;48.87406500;9.59633600;2022-09-09T05:00:46;94806.53;;;14.76;85.12
2000;BME280;1001;48.87406500;9.59633600;2022-09-09T05:03:14;94803.88;;;14.71;85.54
2000;BME280;1001;48.87406500;9.59633600;2022-09-09T05:05:41;94810.72;;;14.67;86.97
2000;BME280;1001;48.87406500;9.59633600;2022-09-09T05:08:08;94807.56;;;14.60;87.46
2000;BME280;1001;48.87406500;9.59633600;2022-09-09T05:10:37;94814.66;;;14.59;88.03
2000;BME280;1001;48.87406500;9.59633600;2022-09-09T05:13:04;94824.41;;;14.64;87.85
2000;BME280;1001;48.87406500;9.59633600;2022-09-09T05:15:31;94819.41;;;14.72;87.59
2000;BME280;1001;48.87406500;9.59633600;2022-09-09T05:17:58;94824.16;;;14.75;87.70
2000;BME280;1001;48.87406500;9.59633600;2022-09-09T05:20:27;94825.50;;;14.83;86.80
2000;BME280;1001;48.87406500;9.59633600;2022-09-09T05:22:54;94828.91;;;14.93;86.76
2000;BME280;1001;48.87406500;9.59633600;2022-09-09T05:25:21;94835.25;;;14.97;86.66
2000;BME280;1001;48.87406500;9.59633600;2022-09-09T05:27:49;94833.41;;;15.03;86.90
2000;BME280;1001;48.87406500;9.59633600;2022-09-09T05:30:16;94833.41;;;15.08;86.21
2000;BME280;1001;48.87406500;9.59633600;2022-09-09T05:32:44;94831.03;;;15.02;86.01
2000;BME280;1001;48.87406500;9.59633600;2022-09-09T05:35:12;94837.09;;;14.92;86.62
2000;BME280;1001;48.87406500;9.59633600;2022-09-09T05:37:40;94836.56;;;14.95;85.90
2000;BME280;1001;48.87406500;9.59633600;2022-09-09T05:40:07;94843.41;;;15.06;85.92
2000;BME280;1001;48.87406500;9.59633600;2022-09-09T05:42:34;94853.19;;;15.21;86.12
2000;BME280;1001;48.87406500;9.59633600;2022-09-09T05:45:01;94855.03;;;15.30;86.10
2000;BME280;1001;48.87406500;9.59633600;2022-09-09T05:47:27;94850.53;;;15.41;84.88
2000;BME280;1001;48.87406500;9.59633600;2022-09-09T05:49:54;94848.16;;;15.59;84.43
2000;BME280;1001;48.87406500;9.59633600;2022-09-09T05:52:21;94850.00;;;15.74;84.01
2000;BME280;1001;48.87406500;9.59633600;2022-09-09T05:54:50;94849.16;;;15.94;84.14
2000;BME280;1001;48.87406500;9.59633600;2022-09-09T05:57:16;94842.28;;;15.98;84.63
2000;BME280;1001;48.87406500;9.59633600;2022-09-09T05:59:44;94857.31;;;15.97;83.65
2000;BME280;1001;48.87406500;9.59633600;2022-09-09T06:02:11;94858.91;;;16.03;83.60
2000;BME280;1001;48.87406500;9.59633600;2022-09-09T06:04:38;94848.06;;;16.05;84.24
2000;BME280;1001;48.87406500;9.59633600;2022-09-09T06:07:05;94852.53;;;16.19;82.99
2000;BME280;1001;48.87406500;9.59633600;2022-09-09T06:09:32;94851.72;;;16.19;81.64
2000;BME280;1001;48.87406500;9.59633600;2022-09-09T06:12:00;94864.56;;;16.46;82.20
2000;BME280;1001;48.87406500;9.59633600;2022-09-09T06:14:26;94858.75;;;16.44;83.01
2000;BME280;1001;48.87406500;9.59633600;2022-09-09T06:16:53;94848.97;;;16.49;80.99
2000;BME280;1001;48.87406500;9.59633600;2022-09-09T06:19:20;94847.41;;;16.43;81.69
2000;BME280;1001;48.87406500;9.59633600;2022-09-09T06:21:46;94851.59;;;16.49;82.33
2000;BME280;1001;48.87406500;9.59633600;2022-09-09T06:24:14;94854.81;;;16.51;81.77
2000;BME280;1001;48.87406500;9.59633600;2022-09-09T06:26:42;94854.47;;;16.68;81.19
2000;BME280;1001;48.87406500;9.59633600;2022-09-09T06:29:11;94860.50;;;16.68;81.06
2000;BME280;1001;48.87406500;9.59633600;2022-09-09T06:31:38;94851.50;;;16.74;80.97
2000;BME280;1001;48.87406500;9.59633600;2022-09-09T06:34:06;94854.81;;;16.95;80.47
2000;BME280;1001;48.87406500;9.59633600;2022-09-09T06:36:34;94853.63;;;17.16;78.65
2000;BME280;1001;48.87406500;9.59633600;2022-09-09T06:39:02;94851.84;;;17.40;79.75
2000;BME280;1001;48.87406500;9.59633600;2022-09-09T06:41:30;94847.22;;;17.61;79.30
2000;BME280;1001;48.87406500;9.59633600;2022-09-09T06:43:58;94854.03;;;17.67;77.75
2000;BME280;1001;48.87406500;9.59633600;2022-09-09T06:46:27;94850.50;;;17.77;77.48
2000;BME280;1001;48.87406500;9.59633600;2022-09-09T06:48:56;94844.75;;;17.70;77.13
2000;BME280;1001;48.87406500;9.59633600;2022-09-09T06:51:27;94853.38;;;17.80;77.17
2000;BME280;1001;48.87406500;9.59633600;2022-09-09T06:53:55;94860.09;;;17.96;75.69
2000;BME280;1001;48.87406500;9.59633600;2022-09-09T06:56:24;94858.88;;;18.12;75.37
2000;BME280;1001;48.87406500;9.59633600;2022-09-09T06:58:54;94854.66;;;18.11;75.32
2000;BME280;1001;48.87406500;9.59633600;2022-09-09T07:01:22;94860.44;;;18.61;77.65
2000;BME280;1001;48.87406500;9.59633600;2022-09-09T07:03:52;94863.59;;;18.63;72.79
2000;BME280;1001;48.87406500;9.59633600;2022-09-09T07:06:21;94857.81;;;18.98;72.16
2000;BME280;1001;48.87406500;9.59633600;2022-09-09T07:08:49;94865.84;;;19.30;74.18
2000;BME280;1001;48.87406500;9.59633600;2022-09-09T07:11:19;94870.16;;;19.08;72.57
2000;BME280;1001;48.87406500;9.59633600;2022-09-09T07:13:46;94872.53;;;19.46;70.55
2000;BME280;1001;48.87406500;9.59633600;2022-09-09T07:16:15;94875.09;;;19.84;71.06
2000;BME280;1001;48.87406500;9.59633600;2022-09-09T07:18:42;94881.41;;;20.01;69.02
2000;BME280;1001;48.87406500;9.59633600;2022-09-09T07:21:11;94878.69;;;19.74;68.46
2000;BME280;1001;48.87406500;9.59633600;2022-09-09T07:23:39;94883.06;;;19.51;70.07
2000;BME280;1001;48.87406500;9.59633600;2022-09-09T07:26:08;94879.56;;;19.37;69.23
2000;BME280;1001;48.87406500;9.59633600;2022-09-09T07:28:35;94888.50;;;19.74;71.94
2000;BME280;1001;48.87406500;9.59633600;2022-09-09T07:31:03;94880.25;;;19.61;69.58
2000;BME280;1001;48.87406500;9.59633600;2022-09-09T07:33:31;94883.81;;;19.33;70.04
2000;BME280;1001;48.87406500;9.59633600;2022-09-09T07:36:03;94883.19;;;19.74;70.95
2000;BME280;1001;48.87406500;9.59633600;2022-09-09T07:38:32;94884.25;;;19.91;68.93
2000;BME280;1001;48.87406500;9.59633600;2022-09-09T07:41:04;94883.34;;;20.28;69.66
2000;BME280;1001;48.87406500;9.59633600;2022-09-09T07:43:32;94895.16;;;20.76;70.45
2000;BME280;1001;48.87406500;9.59633600;2022-09-09T07:46:00;94884.03;;;20.74;68.34
2000;BME280;1001;48.87406500;9.59633600;2022-09-09T07:48:27;94889.34;;;20.61;68.67
2000;BME280;1001;48.87406500;9.59633600;2022-09-09T07:51:04;94885.31;;;19.90;69.73
2000;BME280;1001;48.87406500;9.59633600;2022-09-09T07:53:33;94894.63;;;19.74;71.93
2000;BME280;1001;48.87406500;9.59633600;2022-09-09T07:56:03;94899.16;;;19.55;71.74
2000;BME280;1001;48.87406500;9.59633600;2022-09-09T07:58:30;94906.44;;;19.49;72.26
2000;BME280;1001;48.87406500;9.59633600;2022-09-09T08:00:56;94899.22;;;19.13;73.18
2000;BME280;1001;48.87406500;9.59633600;2022-09-09T08:03:23;94892.22;;;19.59;72.85
2000;BME280;1001;48.87406500;9.59633600;2022-09-09T08:05:50;94891.47;;;19.72;73.71
2000;BME280;1001;48.87406500;9.59633600;2022-09-09T08:08:16;94899.25;;;19.82;72.19
2000;BME280;1001;48.87406500;9.59633600;2022-09-09T08:10:44;94897.53;;;19.59;71.72
2000;BME280;1001;48.87406500;9.59633600;2022-09-09T08:13:11;94889.56;;;19.40;71.09
2000;BME280;1001;48.87406500;9.59633600;2022-09-09T08:15:38;94898.03;;;19.61;72.63
2000;BME280;1001;48.87406500;9.59633600;2022-09-09T08:18:05;94899.44;;;20.18;68.47
2000;BME280;1001;48.87406500;9.59633600;2022-09-09T08:20:31;94908.25;;;20.32;68.55
2000;BME280;1001;48.87406500;9.59633600;2022-09-09T08:22:58;94906.75;;;20.26;68.46
2000;BME280;1001;48.87406500;9.59633600;2022-09-09T08:25:24;94918.50;;;20.06;68.44
2000;BME280;1001;48.87406500;9.59633600;2022-09-09T08:27:52;94924.53;;;20.25;71.82
2000;BME280;1001;48.87406500;9.59633600;2022-09-09T08:30:19;94916.59;;;20.39;70.88
2000;BME280;1001;48.87406500;9.59633600;2022-09-09T08:32:46;94915.13;;;20.01;69.99
2000;BME280;1001;48.87406500;9.59633600;2022-09-09T08:35:12;94913.69;;;20.08;71.54
2000;BME280;1001;48.87406500;9.59633600;2022-09-09T08:37:39;94918.88;;;20.32;71.87
2000;BME280;1001;48.87406500;9.59633600;2022-09-09T08:40:09;94912.28;;;20.43;71.39
2000;BME280;1001;48.87406500;9.59633600;2022-09-09T08:42:41;94913.63;;;20.27;70.93
2000;BME280;1001;48.87406500;9.59633600;2022-09-09T08:45:21;94912.22;;;20.16;72.94
2000;BME280;1001;48.87406500;9.59633600;2022-09-09T08:48:06;94912.66;;;20.23;68.84
2000;BME280;1001;48.87406500;9.59633600;2022-09-09T08:50:40;94913.56;;;20.46;72.34
2000;BME280;1001;48.87406500;9.59633600;2022-09-09T08:53:14;94917.06;;;19.95;72.90
2000;BME280;1001;48.87406500;9.59633600;2022-09-09T08:55:45;94922.78;;;19.89;71.54
2000;BME280;1001;48.87406500;9.59633600;2022-09-09T08:58:16;94920.88;;;19.76;71.07
2000;BME280;1001;48.87406500;9.59633600;2022-09-09T09:01:02;94934.91;;;19.76;75.48
2000;BME280;1001;48.87406500;9.59633600;2022-09-09T09:03:41;94927.16;;;20.12;73.61
2000;BME280;1001;48.87406500;9.59633600;2022-09-09T09:06:21;94926.91;;;20.27;71.14
2000;BME280;1001;48.87406500;9.59633600;2022-09-09T09:09:00;94921.72;;;20.63;68.74
2000;BME280;1001;48.87406500;9.59633600;2022-09-09T09:11:34;94928.00;;;20.80;69.93
2000;BME280;1001;48.87406500;9.59633600;2022-09-09T09:14:03;94920.34;;;20.79;68.59
2000;BME280;1001;48.87406500;9.59633600;2022-09-09T09:16:39;94922.28;;;21.14;68.66
2000;BME280;1001;48.87406500;9.59633600;2022-09-09T09:19:13;94922.63;;;21.35;64.62
2000;BME280;1001;48.87406500;9.59633600;2022-09-09T09:21:43;94917.47;;;21.52;64.84
2000;BME280;1001;48.87406500;9.59633600;2022-09-09T09:24:16;94922.22;;;20.51;64.62
2000;BME280;1001;48.87406500;9.59633600;2022-09-09T09:26:43;94910.13;;;19.99;66.96
2000;BME280;1001;48.87406500;9.59633600;2022-09-09T09:29:13;94911.69;;;20.00;67.95
2000;BME280;1001;48.87406500;9.59633600;2022-09-09T09:31:44;94915.72;;;20.30;68.86
2000;BME280;1001;48.87406500;9.59633600;2022-09-09T09:34:13;94908.13;;;20.91;70.09
2000;BME280;1001;48.87406500;9.59633600;2022-09-09T09:36:42;94902.59;;;20.88;66.04
2000;BME280;1001;48.87406500;9.59633600;2022-09-09T09:39:23;94908.69;;;21.02;69.86
2000;BME280;1001;48.87406500;9.59633600;2022-09-09T09:41:50;94904.38;;;21.06;68.43
2000;BME280;1001;48.87406500;9.59633600;2022-09-09T09:44:26;94887.47;;;20.61;67.93
2000;BME280;1001;48.87406500;9.59633600;2022-09-09T09:47:05;94892.50;;;20.76;67.75
2000;BME280;1001;48.87406500;9.59633600;2022-09-09T09:49:33;94894.41;;;21.12;67.03
2000;BME280;1001;48.87406500;9.59633600;2022-09-09T09:52:00;94895.13;;;20.90;66.15
2000;BME280;1001;48.87406500;9.59633600;2022-09-09T09:54:29;94899.31;;;21.32;67.97
2000;BME280;1001;48.87406500;9.59633600;2022-09-09T09:57:08;94878.94;;;21.72;67.06
2000;BME280;1001;48.87406500;9.59633600;2022-09-09T09:59:35;94875.22;;;22.03;64.37
2000;BME280;1001;48.87406500;9.59633600;2022-09-09T10:02:21;94886.69;;;22.43;60.53
2000;BME280;1001;48.87406500;9.59633600;2022-09-09T10:05:00;94884.38;;;22.50;57.48
2000;BME280;1001;48.87406500;9.59633600;2022-09-09T10:07:27;94886.56;;;22.48;57.39
2000;BME280;1001;48.87406500;9.59633600;2022-09-09T10:09:55;94886.97;;;22.33;59.51
2000;BME280;1001;48.87406500;9.59633600;2022-09-09T10:12:33;94890.63;;;21.84;60.35
2000;BME280;1001;48.87406500;9.59633600;2022-09-09T10:15:18;94890.97;;;21.47;63.48
2000;BME280;1001;48.87406500;9.59633600;2022-09-09T10:17:56;94892.78;;;20.48;65.98
2000;BME280;1001;48.87406500;9.59633600;2022-09-09T10:20:32;94881.00;;;19.94;70.25
2000;BME280;1001;48.87406500;9.59633600;2022-09-09T10:23:11;94867.41;;;19.82;74.96
2000;BME280;1001;48.87406500;9.59633600;2022-09-09T10:25:56;94865.59;;;20.10;72.65
2000;BME280;1001;48.87406500;9.59633600;2022-09-09T10:28:33;94870.66;;;20.25;71.11
2000;BME280;1001;48.87406500;9.59633600;2022-09-09T10:31:10;94875.28;;;20.60;71.79
2000;BME280;1001;48.87406500;9.59633600;2022-09-09T10:33:50;94868.19;;;20.42;62.75
2000;BME280;1001;48.87406500;9.59633600;2022-09-09T10:36:20;94873.63;;;20.37;58.87
2000;BME280;1001;48.87406500;9.59633600;2022-09-09T10:38:50;94881.16;;;20.71;59.26
2000;BME280;1001;48.87406500;9.59633600;2022-09-09T10:41:26;94876.78;;;21.02;59.67
2000;BME280;1001;48.87406500;9.59633600;2022-09-09T10:44:17;94871.44;;;21.16;55.57
2000;BME280;1001;48.87406500;9.59633600;2022-09-09T10:46:55;94875.31;;;21.45;57.22
2000;BME280;1001;48.87406500;9.59633600;2022-09-09T10:49:42;94872.09;;;21.35;56.57
2000;BME280;1001;48.87406500;9.59633600;2022-09-09T10:52:18;94873.91;;;21.26;55.84
2000;BME280;1001;48.87406500;9.59633600;2022-09-09T10:54:56;94869.72;;;21.33;54.19
2000;BME280;1001;48.87406500;9.59633600;2022-09-09T10:57:28;94876.59;;;21.48;54.04
2000;BME280;1001;48.87406500;9.59633600;2022-09-09T10:59:59;94884.31;;;21.80;54.63
2000;BME280;1001;48.87406500;9.59633600;2022-09-09T11:02:30;94876.84;;;21.60;53.92
2000;BME280;1001;48.87406500;9.59633600;2022-09-09T11:05:03;94888.88;;;21.57;57.48
2000;BME280;1001;48.87406500;9.59633600;2022-09-09T11:07:35;94884.19;;;21.41;55.13
2000;BME280;1001;48.87406500;9.59633600;2022-09-09T11:10:21;94883.09;;;21.20;55.56
2000;BME280;1001;48.87406500;9.59633600;2022-09-09T11:12:51;94882.28;;;21.19;55.82
2000;BME280;1001;48.87406500;9.59633600;2022-09-09T11:15:23;94876.34;;;21.36;54.18
2000;BME280;1001;48.87406500;9.59633600;2022-09-09T11:17:54;94881.59;;;21.49;53.50
2000;BME280;1001;48.87406500;9.59633600;2022-09-09T11:20:25;94875.06;;;21.55;54.26
2000;BME280;1001;48.87406500;9.59633600;2022-09-09T11:22:55;94877.44;;;21.79;55.67
2000;BME280;1001;48.87406500;9.59633600;2022-09-09T11:25:32;94868.16;;;21.77;55.32
2000;BME280;1001;48.87406500;9.59633600;2022-09-09T11:28:23;94871.78;;;22.33;54.82
2000;BME280;1001;48.87406500;9.59633600;2022-09-09T11:31:03;94865.19;;;22.79;51.82
2000;BME280;1001;48.87406500;9.59633600;2022-09-09T11:33:58;94862.03;;;22.68;51.29
2000;BME280;1001;48.87406500;9.59633600;2022-09-09T11:36:59;94861.47;;;23.06;53.78
2000;BME280;1001;48.87406500;9.59633600;2022-09-09T11:40:09;94859.75;;;23.01;50.91
2000;BME280;1001;48.87406500;9.59633600;2022-09-09T11:42:40;94851.06;;;22.70;50.65
2000;BME280;1001;48.87406500;9.59633600;2022-09-09T11:45:15;94848.56;;;22.25;53.53
2000;BME280;1001;48.87406500;9.59633600;2022-09-09T11:47:51;94848.94;;;22.10;53.18
2000;BME280;1001;48.87406500;9.59633600;2022-09-09T11:50:29;94847.66;;;21.99;53.68
2000;BME280;1001;48.87406500;9.59633600;2022-09-09T11:53:18;94848.03;;;21.84;54.03
2000;BME280;1001;48.87406500;9.59633600;2022-09-09T11:55:48;94852.69;;;21.56;55.53
2000;BME280;1001;48.87406500;9.59633600;2022-09-09T11:58:26;94849.97;;;21.26;55.64
2000;BME280;1001;48.87406500;9.59633600;2022-09-09T12:00:52;94862.16;;;20.91;56.50
2000;BME280;1001;48.87406500;9.59633600;2022-09-09T12:03:37;94874.16;;;19.61;62.28
2000;BME280;1001;48.87406500;9.59633600;2022-09-09T12:06:14;94881.97;;;18.78;66.11